createdAt,value
2022-12-08T00:00:32.869Z,0.66
2022-12-08T00:03:12.709Z,0.65
2022-12-08T00:06:06.424Z,0.63
2022-12-08T00:09:07.010Z,0.64
2022-12-08T00:11:39.656Z,0.66
2022-12-08T00:14:11.586Z,0.66
2022-12-08T00:16:43.545Z,0.66
2022-12-08T00:19:15.352Z,0.65
2022-12-08T00:21:47.313Z,0.64
2022-12-08T00:24:19.820Z,0.64
2022-12-08T00:26:51.953Z,0.64
2022-12-08T00:29:24.270Z,0.63
2022-12-08T00:31:56.693Z,0.63
2022-12-08T00:34:28.933Z,0.64
2022-12-08T00:37:01.057Z,0.64
2022-12-08T00:39:33.035Z,0.63
2022-12-08T00:42:13.737Z,0.62
2022-12-08T00:44:48.096Z,0.60
2022-12-08T00:47:24.493Z,0.58
2022-12-08T00:49:56.616Z,0.57
2022-12-08T00:52:28.302Z,0.57
2022-12-08T00:55:00.230Z,0.57
2022-12-08T00:57:32.102Z,0.56
2022-12-08T01:00:04.329Z,0.57
2022-12-08T01:02:36.348Z,0.56
2022-12-08T01:05:10.601Z,0.54
2022-12-08T01:07:42.610Z,0.50
2022-12-08T01:10:14.458Z,0.47
2022-12-08T01:12:46.430Z,0.45
2022-12-08T01:15:18.636Z,0.41
2022-12-08T01:17:50.577Z,0.39
2022-12-08T01:20:22.255Z,0.38
2022-12-08T01:22:53.945Z,0.36
2022-12-08T01:25:26.004Z,0.34
2022-12-08T01:27:58.085Z,0.32
2022-12-08T01:30:29.866Z,0.30
2022-12-08T01:33:01.760Z,0.29
2022-12-08T01:35:35.028Z,0.29
2022-12-08T01:38:07.306Z,0.29
2022-12-08T01:40:39.266Z,0.29
2022-12-08T01:43:15.164Z,0.28
2022-12-08T01:45:46.885Z,0.28
2022-12-08T01:48:22.170Z,0.27
2022-12-08T01:50:54.601Z,0.28
2022-12-08T01:53:29.781Z,0.28
2022-12-08T01:56:03.783Z,0.26
2022-12-08T01:58:38.683Z,0.24
2022-12-08T02:01:10.839Z,0.24
2022-12-08T02:03:46.884Z,0.23
2022-12-08T02:06:19.144Z,0.23
2022-12-08T02:08:51.309Z,0.22
2022-12-08T02:11:23.267Z,0.21
2022-12-08T02:13:55.911Z,0.20
2022-12-08T02:16:38.899Z,0.19
2022-12-08T02:19:31.742Z,0.18
2022-12-08T02:22:06.283Z,0.16
2022-12-08T02:24:42.140Z,0.16
2022-12-08T02:27:32.155Z,0.17
2022-12-08T02:30:21.799Z,0.18
2022-12-08T02:33:41.735Z,0.19
2022-12-08T02:36:17.256Z,0.19
2022-12-08T02:38:57.694Z,0.19
2022-12-08T02:41:36.973Z,0.17
2022-12-08T02:44:14.369Z,0.18
2022-12-08T02:46:50.923Z,0.18
2022-12-08T02:49:22.728Z,0.16
2022-12-08T02:52:04.630Z,0.16
2022-12-08T02:54:36.567Z,0.14
2022-12-08T02:57:23.362Z,0.14
2022-12-08T03:00:07.463Z,0.15
2022-12-08T03:02:49.797Z,0.16
2022-12-08T03:05:36.267Z,0.16
2022-12-08T03:08:13.488Z,0.17
2022-12-08T03:10:48.489Z,0.17
2022-12-08T03:13:24.343Z,0.16
2022-12-08T03:15:57.688Z,0.17
2022-12-08T03:18:32.432Z,0.15
2022-12-08T03:21:04.383Z,0.13
2022-12-08T03:23:39.013Z,0.11
2022-12-08T03:26:16.679Z,0.09
2022-12-08T03:28:48.837Z,0.08
2022-12-08T03:31:21.513Z,0.07
2022-12-08T03:33:55.894Z,0.06
2022-12-08T03:36:28.232Z,0.05
2022-12-08T03:39:00.569Z,0.04
2022-12-08T03:41:32.582Z,0.03
2022-12-08T03:44:04.439Z,0.03
2022-12-08T03:46:36.076Z,0.00
2022-12-08T03:49:07.863Z,-0.03
2022-12-08T03:51:39.806Z,-0.06
2022-12-08T03:54:11.620Z,-0.08
2022-12-08T03:56:43.389Z,-0.10
2022-12-08T03:59:15.081Z,-0.12
2022-12-08T04:01:46.803Z,-0.15
2022-12-08T04:04:19.109Z,-0.17
2022-12-08T04:06:51.552Z,-0.18
2022-12-08T04:09:23.347Z,-0.19
2022-12-08T04:11:55.106Z,-0.19
2022-12-08T04:14:27.009Z,-0.17
2022-12-08T04:16:58.850Z,-0.17
2022-12-08T04:19:30.741Z,-0.16
2022-12-08T04:22:02.770Z,-0.15
2022-12-08T04:24:34.617Z,-0.14
2022-12-08T04:27:06.405Z,-0.13
2022-12-08T04:29:38.572Z,-0.12
2022-12-08T04:32:10.603Z,-0.10
2022-12-08T04:34:42.619Z,-0.10
2022-12-08T04:37:14.625Z,-0.08
2022-12-08T04:39:46.715Z,-0.07
2022-12-08T04:42:18.842Z,-0.07
2022-12-08T04:44:50.790Z,-0.05
2022-12-08T04:47:22.694Z,-0.03
2022-12-08T04:49:54.707Z,-0.01
2022-12-08T04:52:26.685Z,0.01
2022-12-08T04:54:58.761Z,0.02
2022-12-08T04:57:30.650Z,0.03
2022-12-08T05:00:03.060Z,0.03
2022-12-08T05:02:35.595Z,0.04
2022-12-08T05:05:08.602Z,0.04
2022-12-08T05:07:40.428Z,0.05
2022-12-08T05:10:12.464Z,0.04
2022-12-08T05:12:45.123Z,0.04
2022-12-08T05:15:17.126Z,0.03
2022-12-08T05:17:49.131Z,0.04
2022-12-08T05:20:20.826Z,0.03
2022-12-08T05:22:52.793Z,0.01
2022-12-08T05:25:25.171Z,-0.00
2022-12-08T05:28:17.629Z,-0.02
2022-12-08T05:30:48.834Z,-0.07
2022-12-08T05:33:20.663Z,-0.09
2022-12-08T05:35:52.822Z,-0.11
2022-12-08T05:38:24.436Z,-0.13
2022-12-08T05:40:56.561Z,-0.13
2022-12-08T05:43:28.536Z,-0.15
2022-12-08T05:46:00.546Z,-0.15
2022-12-08T05:48:32.352Z,-0.16
2022-12-08T05:51:04.806Z,-0.16
2022-12-08T05:53:36.523Z,-0.16
2022-12-08T05:56:08.869Z,-0.19
2022-12-08T05:58:41.023Z,-0.21
2022-12-08T06:01:22.409Z,-0.23
2022-12-08T06:03:55.013Z,-0.25
2022-12-08T06:06:27.521Z,-0.28
2022-12-08T06:08:59.517Z,-0.30
2022-12-08T06:11:33.263Z,-0.31
2022-12-08T06:14:05.337Z,-0.31
2022-12-08T06:16:37.351Z,-0.29
2022-12-08T06:19:09.034Z,-0.26
2022-12-08T06:21:41.047Z,-0.23
2022-12-08T06:24:13.060Z,-0.21
2022-12-08T06:26:47.680Z,-0.17
2022-12-08T06:29:19.560Z,-0.14
2022-12-08T06:31:52.513Z,-0.12
2022-12-08T06:34:24.210Z,-0.10
2022-12-08T06:36:56.563Z,-0.06
2022-12-08T06:39:28.375Z,-0.02
2022-12-08T06:42:20.904Z,0.01
2022-12-08T06:44:53.335Z,0.04
2022-12-08T06:47:26.479Z,0.06
2022-12-08T06:49:58.227Z,0.08
2022-12-08T06:52:30.178Z,0.10
2022-12-08T06:55:02.039Z,0.11
2022-12-08T06:57:33.812Z,0.12
2022-12-08T07:00:07.638Z,0.12
2022-12-08T07:02:40.103Z,0.12
2022-12-08T07:05:12.087Z,0.13
2022-12-08T07:07:44.268Z,0.13
2022-12-08T07:10:16.101Z,0.12
2022-12-08T07:12:47.973Z,0.12
2022-12-08T07:15:19.854Z,0.11
2022-12-08T07:17:57.885Z,0.12
2022-12-08T07:20:31.523Z,0.13
2022-12-08T07:23:03.527Z,0.15
2022-12-08T07:25:35.351Z,0.16
2022-12-08T07:28:13.040Z,0.17
2022-12-08T07:30:44.953Z,0.17
2022-12-08T07:33:16.883Z,0.21
2022-12-08T07:35:56.982Z,0.23
2022-12-08T07:38:29.090Z,0.25
2022-12-08T07:41:01.136Z,0.29
2022-12-08T07:43:33.066Z,0.32
2022-12-08T07:46:04.949Z,0.34
2022-12-08T07:48:37.369Z,0.37
2022-12-08T07:51:10.888Z,0.41
2022-12-08T07:53:45.362Z,0.46
2022-12-08T07:56:20.417Z,0.54
2022-12-08T07:58:53.014Z,0.69
2022-12-08T08:01:29.170Z,0.94
2022-12-08T08:04:02.792Z,1.42
2022-12-08T08:06:36.470Z,1.94
2022-12-08T08:09:09.008Z,2.49
2022-12-08T08:11:40.690Z,3.10
2022-12-08T08:14:13.344Z,3.72
2022-12-08T08:16:48.267Z,4.29
2022-12-08T08:19:20.359Z,4.83
2022-12-08T08:21:52.081Z,5.33
2022-12-08T08:24:24.744Z,5.84
2022-12-08T08:26:56.662Z,6.34
2022-12-08T08:29:29.910Z,6.80
2022-12-08T08:32:03.123Z,7.10
2022-12-08T08:34:35.436Z,7.31
2022-12-08T08:37:07.297Z,7.44
2022-12-08T08:39:39.355Z,7.64
2022-12-08T08:42:11.535Z,7.75
2022-12-08T08:44:43.563Z,7.70
2022-12-08T08:47:15.527Z,7.59
2022-12-08T08:49:48.365Z,7.30
2022-12-08T08:52:20.166Z,7.19
2022-12-08T08:54:52.584Z,7.18
2022-12-08T08:57:26.061Z,6.86
2022-12-08T08:59:58.479Z,6.47
2022-12-08T09:02:30.230Z,6.08
2022-12-08T09:05:02.176Z,5.66
2022-12-08T09:07:34.521Z,5.31
2022-12-08T09:10:08.067Z,5.00
2022-12-08T09:12:40.136Z,4.76
2022-12-08T09:15:12.652Z,4.58
2022-12-08T09:17:44.444Z,4.42
2022-12-08T09:20:17.001Z,4.20
2022-12-08T09:22:48.872Z,4.04
2022-12-08T09:25:21.141Z,3.90
2022-12-08T09:27:53.168Z,3.78
2022-12-08T09:30:25.157Z,3.58
2022-12-08T09:32:57.170Z,3.40
2022-12-08T09:35:28.837Z,3.29
2022-12-08T09:38:00.500Z,3.19
2022-12-08T09:40:48.416Z,3.14
2022-12-08T09:43:29.968Z,3.06
2022-12-08T09:46:02.177Z,2.94
2022-12-08T09:48:36.062Z,2.82
2022-12-08T09:51:09.754Z,2.74
2022-12-08T09:53:46.014Z,2.67
2022-12-08T09:56:23.494Z,2.61
2022-12-08T09:58:57.189Z,2.58
2022-12-08T10:01:32.447Z,2.55
2022-12-08T10:04:05.110Z,2.53
2022-12-08T10:06:42.760Z,2.50
2022-12-08T10:09:24.453Z,2.47
2022-12-08T10:12:00.874Z,2.45
2022-12-08T10:14:38.395Z,2.45
2022-12-08T10:17:17.742Z,2.48
2022-12-08T10:19:50.297Z,2.53
2022-12-08T10:22:24.834Z,2.59
2022-12-08T10:25:01.536Z,2.62
2022-12-08T10:27:34.148Z,2.61
2022-12-08T10:30:07.950Z,2.67
2022-12-08T10:32:40.495Z,2.72
2022-12-08T10:35:14.655Z,2.74
2022-12-08T10:37:58.980Z,2.74
2022-12-08T10:40:40.711Z,2.71
2022-12-08T10:43:19.508Z,2.67
2022-12-08T10:45:51.348Z,2.64
2022-12-08T10:48:25.659Z,2.61
2022-12-08T10:50:59.156Z,2.57
2022-12-08T10:53:32.076Z,2.55
2022-12-08T10:56:17.207Z,2.54
2022-12-08T10:58:50.242Z,2.55
2022-12-08T11:01:24.919Z,2.56
2022-12-08T11:03:58.208Z,2.57
2022-12-08T11:06:36.150Z,2.60
2022-12-08T11:09:24.375Z,2.64
2022-12-08T11:11:58.571Z,2.67
2022-12-08T11:14:32.551Z,2.70
2022-12-08T11:17:08.685Z,2.73
2022-12-08T11:19:41.770Z,2.75
2022-12-08T11:22:25.804Z,2.76
2022-12-08T11:25:02.904Z,2.74
2022-12-08T11:27:36.672Z,2.73
2022-12-08T11:30:17.448Z,2.72
2022-12-08T11:32:51.090Z,2.71
2022-12-08T11:35:26.949Z,2.71
2022-12-08T11:38:20.109Z,2.71
2022-12-08T11:40:55.486Z,2.70
2022-12-08T11:43:32.137Z,2.70
2022-12-08T11:46:06.711Z,2.69
2022-12-08T11:48:44.400Z,2.68
2022-12-08T11:51:19.751Z,2.67
2022-12-08T11:53:59.333Z,2.67
2022-12-08T11:56:35.476Z,2.66
2022-12-08T11:59:14.458Z,2.66
2022-12-08T12:01:46.208Z,2.64
2022-12-08T12:04:25.688Z,2.61
2022-12-08T12:07:13.856Z,2.58
2022-12-08T12:09:58.070Z,2.54
2022-12-08T12:12:42.242Z,2.49
2022-12-08T12:15:33.431Z,2.42
2022-12-08T12:18:13.334Z,2.37
2022-12-08T12:20:53.747Z,2.30
2022-12-08T12:23:30.819Z,2.25
2022-12-08T12:26:04.947Z,2.22
2022-12-08T12:28:43.544Z,2.19
2022-12-08T12:31:18.344Z,2.16
2022-12-08T12:33:50.693Z,2.13
2022-12-08T12:36:23.186Z,2.10
2022-12-08T12:39:03.623Z,2.08
2022-12-08T12:41:45.054Z,2.06
2022-12-08T12:44:37.798Z,2.03
2022-12-08T12:47:13.812Z,2.00
2022-12-08T12:50:12.984Z,1.97
2022-12-08T12:52:51.380Z,1.96
2022-12-08T12:55:52.992Z,1.95
2022-12-08T12:58:42.853Z,1.93
2022-12-08T13:01:39.711Z,1.91
2022-12-08T13:04:12.594Z,1.90
2022-12-08T13:06:47.856Z,1.87
2022-12-08T13:09:30.562Z,1.85
2022-12-08T13:12:10.367Z,1.84
2022-12-08T13:14:48.821Z,1.83
2022-12-08T13:17:27.302Z,1.81
2022-12-08T13:20:01.370Z,1.79
2022-12-08T13:23:04.758Z,1.76
2022-12-08T13:25:54.756Z,1.74
2022-12-08T13:28:29.474Z,1.72
2022-12-08T13:31:02.438Z,1.70
2022-12-08T13:33:39.298Z,1.69
2022-12-08T13:36:20.123Z,1.66
2022-12-08T13:38:58.820Z,1.66
2022-12-08T13:41:34.713Z,1.65
2022-12-08T13:58:43.357Z,1.57
2022-12-08T14:01:18.459Z,1.56
2022-12-08T14:04:22.202Z,1.53
2022-12-08T14:06:48.959Z,1.51
2022-12-08T14:09:22.370Z,1.49
2022-12-08T14:11:58.342Z,1.47
2022-12-08T14:15:01.360Z,1.44
2022-12-08T14:17:26.091Z,1.42
2022-12-08T14:20:01.004Z,1.41
2022-12-08T14:22:37.993Z,1.40
2022-12-08T14:25:15.137Z,1.39
2022-12-08T14:27:48.258Z,1.38
2022-12-08T14:30:24.535Z,1.37
2022-12-08T14:32:59.474Z,1.37
2022-12-08T14:35:32.716Z,1.36
2022-12-08T14:38:06.275Z,1.36
2022-12-08T14:40:39.764Z,1.35
2022-12-08T14:43:19.176Z,1.35
2022-12-08T14:45:53.569Z,1.35
2022-12-08T14:48:26.866Z,1.36
2022-12-08T14:51:02.834Z,1.36
2022-12-08T14:53:41.016Z,1.38
2022-12-08T14:56:19.562Z,1.39
2022-12-08T14:59:02.739Z,1.40
2022-12-08T15:01:35.542Z,1.41
2022-12-08T15:04:15.415Z,1.43
2022-12-08T15:06:51.240Z,1.43
2022-12-08T15:09:33.581Z,1.44
2022-12-08T15:12:06.719Z,1.46
2022-12-08T15:14:41.168Z,1.47
2022-12-08T15:17:29.686Z,1.47
2022-12-08T15:20:02.982Z,1.47
2022-12-08T15:22:36.441Z,1.47
2022-12-08T15:25:14.984Z,1.47
2022-12-08T15:27:50.782Z,1.47
2022-12-08T15:30:23.913Z,1.46
2022-12-08T15:32:56.489Z,1.45
2022-12-08T15:35:28.547Z,1.45
2022-12-08T15:38:00.389Z,1.44
2022-12-08T15:40:32.012Z,1.44
2022-12-08T15:43:03.703Z,1.43
2022-12-08T15:45:35.538Z,1.43
2022-12-08T15:48:08.194Z,1.42
2022-12-08T15:50:39.919Z,1.42
2022-12-08T15:53:12.700Z,1.41
2022-12-08T15:56:03.564Z,1.40
2022-12-08T15:58:56.022Z,1.39
2022-12-08T16:01:29.148Z,1.38
2022-12-08T16:09:46.494Z,1.35
2022-12-08T16:15:55.112Z,1.34
2022-12-08T16:18:27.152Z,1.34
2022-12-08T16:21:09.679Z,1.33
2022-12-08T16:23:48.772Z,1.34
2022-12-08T16:29:20.879Z,1.34
2022-12-08T16:31:53.009Z,1.35
2022-12-08T16:34:24.921Z,1.37
2022-12-08T16:36:56.593Z,1.38
2022-12-08T16:39:28.307Z,1.40
2022-12-08T16:42:28.869Z,1.42
2022-12-08T16:45:00.662Z,1.44
2022-12-08T16:47:32.719Z,1.45
2022-12-08T16:50:07.551Z,1.46
2022-12-08T16:52:39.357Z,1.46
2022-12-08T16:55:12.683Z,1.47
2022-12-08T16:57:44.806Z,1.49
2022-12-08T17:00:19.940Z,1.50
2022-12-08T17:02:52.275Z,1.51
2022-12-08T17:05:27.097Z,1.52
2022-12-08T17:07:59.264Z,1.53
2022-12-08T17:10:34.418Z,1.55
2022-12-08T17:13:06.427Z,1.55
2022-12-08T17:15:41.025Z,1.56
2022-12-08T17:18:12.814Z,1.57
2022-12-08T17:20:44.467Z,1.58
2022-12-08T17:23:16.537Z,1.59
2022-12-08T17:25:48.189Z,1.61
2022-12-08T17:28:43.888Z,1.62
2022-12-08T17:31:16.831Z,1.65
2022-12-08T17:33:48.708Z,1.68
2022-12-08T17:36:20.584Z,1.71
2022-12-08T17:38:52.696Z,1.72
2022-12-08T17:41:24.494Z,1.76
2022-12-08T17:43:57.268Z,1.80
2022-12-08T17:46:29.433Z,1.82
2022-12-08T17:49:01.376Z,1.85
2022-12-08T17:51:33.037Z,1.88
2022-12-08T17:54:05.930Z,1.92
2022-12-08T17:56:37.665Z,1.96
2022-12-08T17:59:09.462Z,1.98
2022-12-08T18:01:41.614Z,2.01
2022-12-08T18:04:13.748Z,2.03
2022-12-08T18:06:45.484Z,2.07
2022-12-08T18:09:17.542Z,2.10
2022-12-08T18:11:49.413Z,2.13
2022-12-08T18:14:21.331Z,2.14
2022-12-08T18:16:53.485Z,2.18
2022-12-08T18:19:26.497Z,2.21
2022-12-08T18:21:58.408Z,2.23
2022-12-08T18:24:32.764Z,2.25
2022-12-08T18:27:04.626Z,2.27
2022-12-08T18:29:36.521Z,2.29
2022-12-08T18:32:08.847Z,2.30
2022-12-08T18:34:40.915Z,2.31
2022-12-08T18:37:12.584Z,2.32
2022-12-08T18:39:44.384Z,2.33
2022-12-08T18:42:25.819Z,2.33
2022-12-08T18:45:03.004Z,2.34
2022-12-08T18:47:37.436Z,2.32
2022-12-08T18:50:12.608Z,2.32
2022-12-08T18:52:45.922Z,2.31
2022-12-08T18:55:18.486Z,2.30
2022-12-08T18:57:50.334Z,2.28
2022-12-08T19:00:23.415Z,2.27
2022-12-08T19:03:00.412Z,2.24
2022-12-08T19:05:41.791Z,2.21
2022-12-08T19:08:13.496Z,2.16
2022-12-08T19:10:45.423Z,2.13
2022-12-08T19:13:17.136Z,2.08
2022-12-08T19:15:49.137Z,2.04
2022-12-08T19:18:20.917Z,2.00
2022-12-08T19:21:01.080Z,1.97
2022-12-08T19:23:40.862Z,1.92
2022-12-08T19:26:17.070Z,1.87
2022-12-08T19:28:50.426Z,1.83
2022-12-08T19:31:23.285Z,1.80
2022-12-08T19:33:55.366Z,1.76
2022-12-08T19:36:28.053Z,1.73
2022-12-08T19:39:17.558Z,1.71
2022-12-08T19:42:07.617Z,1.66
2022-12-08T19:44:54.718Z,1.63
2022-12-08T19:47:28.278Z,1.59
2022-12-08T19:50:14.016Z,1.56
2022-12-08T19:52:46.395Z,1.53
2022-12-08T19:55:18.449Z,1.51
2022-12-08T19:57:50.258Z,1.50
2022-12-08T20:00:23.279Z,1.47
2022-12-08T20:02:55.112Z,1.45
2022-12-08T20:05:27.088Z,1.42
2022-12-08T20:07:59.113Z,1.40
2022-12-08T20:10:33.792Z,1.38
2022-12-08T20:13:23.619Z,1.35
2022-12-08T20:15:55.632Z,1.33
2022-12-08T20:18:28.843Z,1.31
2022-12-08T20:21:00.649Z,1.30
2022-12-08T20:23:32.521Z,1.28
2022-12-08T20:26:07.040Z,1.27
2022-12-08T20:28:39.017Z,1.25
2022-12-08T20:31:16.567Z,1.23
2022-12-08T20:33:48.795Z,1.21
2022-12-08T20:36:21.906Z,1.19
2022-12-08T20:38:54.828Z,1.16
2022-12-08T20:41:26.613Z,1.13
2022-12-08T20:43:58.638Z,1.10
2022-12-08T20:46:31.158Z,1.06
2022-12-08T20:49:04.426Z,1.03
2022-12-08T20:51:36.727Z,1.00
2022-12-08T20:54:10.244Z,0.97
2022-12-08T20:56:48.153Z,0.94
2022-12-08T20:59:20.820Z,0.90
2022-12-08T21:01:54.543Z,0.87
2022-12-08T21:04:26.868Z,0.84
2022-12-08T21:06:59.940Z,0.80
2022-12-08T21:09:31.819Z,0.77
2022-12-08T21:12:04.111Z,0.75
2022-12-08T21:14:35.982Z,0.71
2022-12-08T21:17:08.675Z,0.69
2022-12-08T21:19:41.152Z,0.66
2022-12-08T21:22:13.774Z,0.63
2022-12-08T21:24:46.344Z,0.61
2022-12-08T21:27:18.439Z,0.58
2022-12-08T21:29:52.914Z,0.56
2022-12-08T21:32:30.108Z,0.53
2022-12-08T21:35:02.657Z,0.50
2022-12-08T21:37:34.775Z,0.48
2022-12-08T21:40:09.351Z,0.46
2022-12-08T21:42:47.379Z,0.44
2022-12-08T21:45:21.018Z,0.43
2022-12-08T21:47:53.160Z,0.41
2022-12-08T21:50:25.081Z,0.39
2022-12-08T21:52:57.749Z,0.37
2022-12-08T21:55:29.942Z,0.36
2022-12-08T21:58:02.580Z,0.34
2022-12-08T22:00:38.556Z,0.32
2022-12-08T22:03:15.650Z,0.30
2022-12-08T22:05:47.774Z,0.29
2022-12-08T22:08:19.839Z,0.27
2022-12-08T22:10:51.565Z,0.26
2022-12-08T22:13:23.612Z,0.24
2022-12-08T22:15:59.960Z,0.23
2022-12-08T22:18:32.230Z,0.22
2022-12-08T22:21:05.051Z,0.21
2022-12-08T22:23:36.968Z,0.19
2022-12-08T22:26:09.846Z,0.17
2022-12-08T22:28:44.443Z,0.15
2022-12-08T22:31:17.815Z,0.12
2022-12-08T22:33:51.276Z,0.08
2022-12-08T22:36:24.561Z,0.07
2022-12-08T22:38:57.098Z,0.05
2022-12-08T22:41:28.968Z,0.03
2022-12-08T22:44:00.892Z,0.02
2022-12-08T22:46:32.970Z,0.01
2022-12-08T22:49:05.804Z,-0.01
2022-12-08T22:51:39.685Z,-0.03
2022-12-08T22:54:12.962Z,-0.04
2022-12-08T22:56:45.449Z,-0.05
2022-12-08T22:59:17.449Z,-0.07
2022-12-08T23:01:49.419Z,-0.08
2022-12-08T23:04:23.053Z,-0.10
2022-12-08T23:06:55.265Z,-0.12
2022-12-08T23:09:27.088Z,-0.13
2022-12-08T23:11:59.161Z,-0.13
2022-12-08T23:14:31.063Z,-0.13
2022-12-08T23:17:03.017Z,-0.15
2022-12-08T23:19:38.197Z,-0.15
2022-12-08T23:22:10.147Z,-0.17
2022-12-08T23:24:42.271Z,-0.19
2022-12-08T23:27:14.179Z,-0.19
2022-12-08T23:29:46.683Z,-0.20
2022-12-08T23:32:18.624Z,-0.22
2022-12-08T23:34:50.764Z,-0.22
2022-12-08T23:37:23.179Z,-0.23
2022-12-08T23:39:55.234Z,-0.24
2022-12-08T23:42:27.377Z,-0.26
2022-12-08T23:44:59.427Z,-0.26
2022-12-08T23:47:31.648Z,-0.28
2022-12-08T23:50:03.847Z,-0.29
2022-12-08T23:52:37.620Z,-0.30
2022-12-08T23:55:12.323Z,-0.30
2022-12-08T23:57:44.248Z,-0.30
